sensor_id;sensor_type;location;lat;lon;timestamp;P1;durP1;ratioP1;P2;durP2;ratioP2
54977;SDS011;40873;47.522;19.106;2022-12-05T00:03:48;19.73;;;9.20;;
54977;SDS011;40873;47.522;19.106;2022-12-05T00:06:17;17.02;;;8.75;;
54977;SDS011;40873;47.522;19.106;2022-12-05T00:08:44;18.15;;;9.68;;
54977;SDS011;40873;47.522;19.106;2022-12-05T00:11:13;19.85;;;8.80;;
54977;SDS011;40873;47.522;19.106;2022-12-05T00:13:41;23.25;;;9.73;;
54977;SDS011;40873;47.522;19.106;2022-12-05T00:16:09;21.90;;;10.82;;
54977;SDS011;40873;47.522;19.106;2022-12-05T00:18:37;27.45;;;13.75;;
54977;SDS011;40873;47.522;19.106;2022-12-05T00:21:05;25.30;;;12.35;;
54977;SDS011;40873;47.522;19.106;2022-12-05T00:23:32;23.33;;;12.63;;
54977;SDS011;40873;47.522;19.106;2022-12-05T00:26:03;22.48;;;11.18;;
54977;SDS011;40873;47.522;19.106;2022-12-05T00:28:31;20.88;;;11.15;;
54977;SDS011;40873;47.522;19.106;2022-12-05T00:31:03;23.98;;;13.48;;
54977;SDS011;40873;47.522;19.106;2022-12-05T00:33:35;23.23;;;10.88;;
54977;SDS011;40873;47.522;19.106;2022-12-05T00:36:03;23.17;;;10.55;;
54977;SDS011;40873;47.522;19.106;2022-12-05T00:38:32;19.65;;;10.40;;
54977;SDS011;40873;47.522;19.106;2022-12-05T00:41:06;21.33;;;10.73;;
54977;SDS011;40873;47.522;19.106;2022-12-05T00:43:35;21.55;;;9.88;;
54977;SDS011;40873;47.522;19.106;2022-12-05T00:46:04;17.83;;;9.15;;
54977;SDS011;40873;47.522;19.106;2022-12-05T00:48:33;18.55;;;9.38;;
54977;SDS011;40873;47.522;19.106;2022-12-05T00:51:12;18.02;;;9.48;;
54977;SDS011;40873;47.522;19.106;2022-12-05T00:53:39;19.98;;;9.80;;
54977;SDS011;40873;47.522;19.106;2022-12-05T00:56:08;19.92;;;10.25;;
54977;SDS011;40873;47.522;19.106;2022-12-05T00:58:37;16.33;;;8.65;;
54977;SDS011;40873;47.522;19.106;2022-12-05T01:01:06;20.42;;;8.75;;
54977;SDS011;40873;47.522;19.106;2022-12-05T01:03:33;15.93;;;8.65;;
54977;SDS011;40873;47.522;19.106;2022-12-05T01:06:00;21.65;;;9.32;;
54977;SDS011;40873;47.522;19.106;2022-12-05T01:08:27;17.95;;;8.02;;
54977;SDS011;40873;47.522;19.106;2022-12-05T01:10:55;17.02;;;8.20;;
54977;SDS011;40873;47.522;19.106;2022-12-05T01:13:23;16.10;;;7.18;;
54977;SDS011;40873;47.522;19.106;2022-12-05T01:15:51;12.25;;;6.43;;
54977;SDS011;40873;47.522;19.106;2022-12-05T01:18:18;16.83;;;7.05;;
54977;SDS011;40873;47.522;19.106;2022-12-05T01:20:45;10.13;;;5.40;;
54977;SDS011;40873;47.522;19.106;2022-12-05T01:23:12;15.27;;;6.05;;
54977;SDS011;40873;47.522;19.106;2022-12-05T01:25:40;9.02;;;5.03;;
54977;SDS011;40873;47.522;19.106;2022-12-05T01:28:08;9.85;;;5.18;;
54977;SDS011;40873;47.522;19.106;2022-12-05T01:30:36;10.38;;;5.05;;
54977;SDS011;40873;47.522;19.106;2022-12-05T01:33:05;10.73;;;5.10;;
54977;SDS011;40873;47.522;19.106;2022-12-05T01:35:33;10.80;;;4.97;;
54977;SDS011;40873;47.522;19.106;2022-12-05T01:38:01;13.05;;;5.68;;
54977;SDS011;40873;47.522;19.106;2022-12-05T01:40:29;11.32;;;6.10;;
54977;SDS011;40873;47.522;19.106;2022-12-05T01:42:56;14.18;;;4.63;;
54977;SDS011;40873;47.522;19.106;2022-12-05T01:45:25;12.68;;;5.65;;
54977;SDS011;40873;47.522;19.106;2022-12-05T01:47:59;12.02;;;5.43;;
54977;SDS011;40873;47.522;19.106;2022-12-05T01:50:29;12.55;;;5.57;;
54977;SDS011;40873;47.522;19.106;2022-12-05T01:52:56;8.88;;;4.95;;
54977;SDS011;40873;47.522;19.106;2022-12-05T01:55:23;10.73;;;5.32;;
54977;SDS011;40873;47.522;19.106;2022-12-05T01:57:50;9.98;;;5.13;;
54977;SDS011;40873;47.522;19.106;2022-12-05T02:00:18;13.02;;;5.85;;
54977;SDS011;40873;47.522;19.106;2022-12-05T02:02:50;14.43;;;6.10;;
54977;SDS011;40873;47.522;19.106;2022-12-05T02:05:24;13.23;;;5.78;;
54977;SDS011;40873;47.522;19.106;2022-12-05T02:07:55;10.77;;;4.80;;
54977;SDS011;40873;47.522;19.106;2022-12-05T02:10:25;10.88;;;5.20;;
54977;SDS011;40873;47.522;19.106;2022-12-05T02:12:56;12.35;;;5.65;;
54977;SDS011;40873;47.522;19.106;2022-12-05T02:18:33;13.65;;;5.63;;
54977;SDS011;40873;47.522;19.106;2022-12-05T02:24:26;11.40;;;5.30;;
54977;SDS011;40873;47.522;19.106;2022-12-05T02:30:12;11.25;;;5.20;;
54977;SDS011;40873;47.522;19.106;2022-12-05T02:35:41;9.98;;;4.93;;
54977;SDS011;40873;47.522;19.106;2022-12-05T02:46:26;10.05;;;4.82;;
54977;SDS011;40873;47.522;19.106;2022-12-05T02:48:57;11.43;;;5.88;;
54977;SDS011;40873;47.522;19.106;2022-12-05T02:51:32;12.70;;;4.57;;
54977;SDS011;40873;47.522;19.106;2022-12-05T02:54:04;9.43;;;4.40;;
54977;SDS011;40873;47.522;19.106;2022-12-05T02:56:35;11.80;;;5.57;;
54977;SDS011;40873;47.522;19.106;2022-12-05T02:59:04;9.00;;;4.50;;
54977;SDS011;40873;47.522;19.106;2022-12-05T03:01:31;11.90;;;4.63;;
54977;SDS011;40873;47.522;19.106;2022-12-05T03:03:59;11.57;;;5.07;;
54977;SDS011;40873;47.522;19.106;2022-12-05T03:09:15;9.48;;;4.55;;
54977;SDS011;40873;47.522;19.106;2022-12-05T03:11:53;9.48;;;4.20;;
54977;SDS011;40873;47.522;19.106;2022-12-05T03:14:28;12.00;;;5.07;;
54977;SDS011;40873;47.522;19.106;2022-12-05T03:17:02;10.60;;;4.72;;
54977;SDS011;40873;47.522;19.106;2022-12-05T03:19:44;8.43;;;4.53;;
54977;SDS011;40873;47.522;19.106;2022-12-05T03:22:21;10.30;;;5.20;;
54977;SDS011;40873;47.522;19.106;2022-12-05T03:25:00;8.32;;;4.82;;
54977;SDS011;40873;47.522;19.106;2022-12-05T03:30:05;9.23;;;4.25;;
54977;SDS011;40873;47.522;19.106;2022-12-05T03:32:36;12.82;;;4.63;;
54977;SDS011;40873;47.522;19.106;2022-12-05T03:37:51;10.53;;;4.33;;
54977;SDS011;40873;47.522;19.106;2022-12-05T03:43:21;11.70;;;5.32;;
54977;SDS011;40873;47.522;19.106;2022-12-05T03:46:14;10.45;;;4.32;;
54977;SDS011;40873;47.522;19.106;2022-12-05T03:48:56;10.77;;;5.22;;
54977;SDS011;40873;47.522;19.106;2022-12-05T03:51:27;11.05;;;5.35;;
54977;SDS011;40873;47.522;19.106;2022-12-05T03:54:03;10.57;;;5.05;;
54977;SDS011;40873;47.522;19.106;2022-12-05T03:56:43;11.30;;;4.93;;
54977;SDS011;40873;47.522;19.106;2022-12-05T04:04:29;12.27;;;4.72;;
54977;SDS011;40873;47.522;19.106;2022-12-05T04:07:01;12.30;;;5.72;;
54977;SDS011;40873;47.522;19.106;2022-12-05T04:09:33;11.45;;;5.40;;
54977;SDS011;40873;47.522;19.106;2022-12-05T04:12:07;12.65;;;5.25;;
54977;SDS011;40873;47.522;19.106;2022-12-05T04:14:41;11.32;;;5.32;;
54977;SDS011;40873;47.522;19.106;2022-12-05T04:17:20;12.38;;;5.07;;
54977;SDS011;40873;47.522;19.106;2022-12-05T04:22:41;10.57;;;4.47;;
54977;SDS011;40873;47.522;19.106;2022-12-05T04:25:10;13.40;;;5.80;;
54977;SDS011;40873;47.522;19.106;2022-12-05T04:28:01;11.30;;;5.53;;
54977;SDS011;40873;47.522;19.106;2022-12-05T04:30:32;12.43;;;5.30;;
54977;SDS011;40873;47.522;19.106;2022-12-05T04:44:31;11.75;;;5.90;;
54977;SDS011;40873;47.522;19.106;2022-12-05T04:47:04;14.63;;;7.07;;
54977;SDS011;40873;47.522;19.106;2022-12-05T04:49:34;13.43;;;6.28;;
54977;SDS011;40873;47.522;19.106;2022-12-05T04:52:03;14.40;;;5.57;;
54977;SDS011;40873;47.522;19.106;2022-12-05T04:54:37;12.30;;;6.57;;
54977;SDS011;40873;47.522;19.106;2022-12-05T04:57:10;11.43;;;5.50;;
54977;SDS011;40873;47.522;19.106;2022-12-05T04:59:58;13.32;;;7.38;;
54977;SDS011;40873;47.522;19.106;2022-12-05T05:02:31;13.75;;;6.18;;
54977;SDS011;40873;47.522;19.106;2022-12-05T05:05:04;13.65;;;6.63;;
54977;SDS011;40873;47.522;19.106;2022-12-05T05:07:43;11.43;;;6.07;;
54977;SDS011;40873;47.522;19.106;2022-12-05T05:10:16;12.65;;;7.15;;
54977;SDS011;40873;47.522;19.106;2022-12-05T05:12:48;14.95;;;7.75;;
54977;SDS011;40873;47.522;19.106;2022-12-05T05:15:15;14.75;;;6.97;;
54977;SDS011;40873;47.522;19.106;2022-12-05T05:17:42;12.95;;;7.05;;
54977;SDS011;40873;47.522;19.106;2022-12-05T05:20:12;10.95;;;6.20;;
54977;SDS011;40873;47.522;19.106;2022-12-05T05:22:53;15.73;;;7.53;;
54977;SDS011;40873;47.522;19.106;2022-12-05T05:25:21;14.27;;;7.47;;
54977;SDS011;40873;47.522;19.106;2022-12-05T05:27:50;12.73;;;6.63;;
54977;SDS011;40873;47.522;19.106;2022-12-05T05:30:19;13.43;;;7.20;;
54977;SDS011;40873;47.522;19.106;2022-12-05T05:32:47;13.50;;;6.65;;
54977;SDS011;40873;47.522;19.106;2022-12-05T05:35:14;13.80;;;7.05;;
54977;SDS011;40873;47.522;19.106;2022-12-05T05:37:41;14.07;;;6.82;;
54977;SDS011;40873;47.522;19.106;2022-12-05T05:40:09;15.50;;;6.53;;
54977;SDS011;40873;47.522;19.106;2022-12-05T05:42:41;13.70;;;6.97;;
54977;SDS011;40873;47.522;19.106;2022-12-05T05:45:10;16.00;;;7.70;;
54977;SDS011;40873;47.522;19.106;2022-12-05T05:47:38;13.13;;;6.53;;
54977;SDS011;40873;47.522;19.106;2022-12-05T05:50:06;11.40;;;6.22;;
54977;SDS011;40873;47.522;19.106;2022-12-05T05:52:34;12.45;;;6.53;;
54977;SDS011;40873;47.522;19.106;2022-12-05T05:55:03;16.15;;;7.68;;
54977;SDS011;40873;47.522;19.106;2022-12-05T05:57:31;16.08;;;8.00;;
54977;SDS011;40873;47.522;19.106;2022-12-05T05:59:58;17.95;;;7.55;;
54977;SDS011;40873;47.522;19.106;2022-12-05T06:02:30;14.77;;;6.63;;
54977;SDS011;40873;47.522;19.106;2022-12-05T06:04:58;12.35;;;6.68;;
54977;SDS011;40873;47.522;19.106;2022-12-05T06:07:25;13.07;;;7.72;;
54977;SDS011;40873;47.522;19.106;2022-12-05T06:09:52;13.57;;;7.38;;
54977;SDS011;40873;47.522;19.106;2022-12-05T06:12:19;14.55;;;7.03;;
54977;SDS011;40873;47.522;19.106;2022-12-05T06:14:47;16.40;;;8.32;;
54977;SDS011;40873;47.522;19.106;2022-12-05T06:17:14;16.10;;;7.47;;
54977;SDS011;40873;47.522;19.106;2022-12-05T06:19:42;21.23;;;8.18;;
54977;SDS011;40873;47.522;19.106;2022-12-05T06:22:08;15.35;;;8.07;;
54977;SDS011;40873;47.522;19.106;2022-12-05T06:24:35;13.77;;;7.43;;
54977;SDS011;40873;47.522;19.106;2022-12-05T06:27:03;17.75;;;8.43;;
54977;SDS011;40873;47.522;19.106;2022-12-05T06:29:30;16.38;;;8.38;;
54977;SDS011;40873;47.522;19.106;2022-12-05T06:31:59;18.08;;;7.57;;
54977;SDS011;40873;47.522;19.106;2022-12-05T06:34:27;14.23;;;8.60;;
54977;SDS011;40873;47.522;19.106;2022-12-05T06:36:54;15.50;;;8.02;;
54977;SDS011;40873;47.522;19.106;2022-12-05T06:39:21;18.67;;;8.77;;
54977;SDS011;40873;47.522;19.106;2022-12-05T06:41:48;17.08;;;8.50;;
54977;SDS011;40873;47.522;19.106;2022-12-05T06:44:15;16.10;;;8.88;;
54977;SDS011;40873;47.522;19.106;2022-12-05T06:46:42;16.52;;;8.73;;
54977;SDS011;40873;47.522;19.106;2022-12-05T06:49:09;18.45;;;7.80;;
54977;SDS011;40873;47.522;19.106;2022-12-05T06:51:36;14.82;;;8.10;;
54977;SDS011;40873;47.522;19.106;2022-12-05T06:54:03;14.57;;;7.78;;
54977;SDS011;40873;47.522;19.106;2022-12-05T06:56:30;16.92;;;8.90;;
54977;SDS011;40873;47.522;19.106;2022-12-05T06:58:57;16.35;;;8.10;;
54977;SDS011;40873;47.522;19.106;2022-12-05T07:01:24;15.77;;;8.55;;
54977;SDS011;40873;47.522;19.106;2022-12-05T07:04:20;22.65;;;7.88;;
54977;SDS011;40873;47.522;19.106;2022-12-05T07:06:52;16.73;;;7.50;;
54977;SDS011;40873;47.522;19.106;2022-12-05T07:09:21;16.38;;;8.43;;
54977;SDS011;40873;47.522;19.106;2022-12-05T07:12:10;22.50;;;9.00;;
54977;SDS011;40873;47.522;19.106;2022-12-05T07:14:38;16.92;;;8.13;;
54977;SDS011;40873;47.522;19.106;2022-12-05T07:17:14;18.95;;;8.68;;
54977;SDS011;40873;47.522;19.106;2022-12-05T07:19:42;16.58;;;8.57;;
54977;SDS011;40873;47.522;19.106;2022-12-05T07:22:09;18.15;;;7.95;;
54977;SDS011;40873;47.522;19.106;2022-12-05T07:24:41;17.65;;;8.13;;
54977;SDS011;40873;47.522;19.106;2022-12-05T07:27:11;18.40;;;8.57;;
54977;SDS011;40873;47.522;19.106;2022-12-05T07:29:41;16.02;;;7.38;;
54977;SDS011;40873;47.522;19.106;2022-12-05T07:32:11;15.82;;;8.18;;
54977;SDS011;40873;47.522;19.106;2022-12-05T07:34:41;16.83;;;8.20;;
54977;SDS011;40873;47.522;19.106;2022-12-05T07:37:13;17.33;;;8.10;;
54977;SDS011;40873;47.522;19.106;2022-12-05T07:39:40;14.40;;;7.55;;
54977;SDS011;40873;47.522;19.106;2022-12-05T07:42:07;14.70;;;8.13;;
54977;SDS011;40873;47.522;19.106;2022-12-05T07:44:34;14.70;;;8.13;;
54977;SDS011;40873;47.522;19.106;2022-12-05T07:47:01;15.50;;;8.23;;
54977;SDS011;40873;47.522;19.106;2022-12-05T07:49:28;14.93;;;7.45;;
54977;SDS011;40873;47.522;19.106;2022-12-05T07:51:55;14.55;;;7.75;;
54977;SDS011;40873;47.522;19.106;2022-12-05T07:54:22;15.95;;;7.72;;
54977;SDS011;40873;47.522;19.106;2022-12-05T07:56:49;15.18;;;6.97;;
54977;SDS011;40873;47.522;19.106;2022-12-05T07:59:16;14.38;;;7.00;;
54977;SDS011;40873;47.522;19.106;2022-12-05T08:01:43;17.40;;;8.40;;
54977;SDS011;40873;47.522;19.106;2022-12-05T08:04:10;16.65;;;7.13;;
54977;SDS011;40873;47.522;19.106;2022-12-05T08:06:41;13.00;;;6.65;;
54977;SDS011;40873;47.522;19.106;2022-12-05T08:09:08;12.48;;;6.55;;
54977;SDS011;40873;47.522;19.106;2022-12-05T08:11:35;15.70;;;6.55;;
54977;SDS011;40873;47.522;19.106;2022-12-05T08:14:03;13.82;;;7.57;;
54977;SDS011;40873;47.522;19.106;2022-12-05T08:16:31;13.40;;;7.68;;
54977;SDS011;40873;47.522;19.106;2022-12-05T08:19:02;13.25;;;6.60;;
54977;SDS011;40873;47.522;19.106;2022-12-05T08:21:31;11.50;;;6.72;;
54977;SDS011;40873;47.522;19.106;2022-12-05T08:23:59;11.07;;;6.15;;
54977;SDS011;40873;47.522;19.106;2022-12-05T08:26:29;10.73;;;6.78;;
54977;SDS011;40873;47.522;19.106;2022-12-05T08:29:04;13.98;;;7.47;;
54977;SDS011;40873;47.522;19.106;2022-12-05T08:31:43;12.52;;;6.50;;
54977;SDS011;40873;47.522;19.106;2022-12-05T08:34:15;12.00;;;6.70;;
54977;SDS011;40873;47.522;19.106;2022-12-05T08:36:44;15.20;;;6.75;;
54977;SDS011;40873;47.522;19.106;2022-12-05T08:39:13;13.60;;;6.20;;
54977;SDS011;40873;47.522;19.106;2022-12-05T08:41:43;13.25;;;7.38;;
54977;SDS011;40873;47.522;19.106;2022-12-05T08:44:12;14.13;;;7.25;;
54977;SDS011;40873;47.522;19.106;2022-12-05T08:46:43;10.82;;;6.95;;
54977;SDS011;40873;47.522;19.106;2022-12-05T08:49:11;13.02;;;6.85;;
54977;SDS011;40873;47.522;19.106;2022-12-05T08:51:39;11.27;;;7.25;;
54977;SDS011;40873;47.522;19.106;2022-12-05T08:54:08;13.55;;;6.93;;
54977;SDS011;40873;47.522;19.106;2022-12-05T08:56:35;14.75;;;7.35;;
54977;SDS011;40873;47.522;19.106;2022-12-05T08:59:04;14.02;;;7.75;;
54977;SDS011;40873;47.522;19.106;2022-12-05T09:01:32;14.85;;;8.30;;
54977;SDS011;40873;47.522;19.106;2022-12-05T09:04:02;12.95;;;7.07;;
54977;SDS011;40873;47.522;19.106;2022-12-05T09:06:31;16.23;;;8.30;;
54977;SDS011;40873;47.522;19.106;2022-12-05T09:09:01;18.20;;;8.75;;
54977;SDS011;40873;47.522;19.106;2022-12-05T09:11:31;14.85;;;8.13;;
54977;SDS011;40873;47.522;19.106;2022-12-05T09:14:01;12.52;;;7.43;;
54977;SDS011;40873;47.522;19.106;2022-12-05T09:16:29;15.07;;;8.40;;
54977;SDS011;40873;47.522;19.106;2022-12-05T09:19:04;15.25;;;7.55;;
54977;SDS011;40873;47.522;19.106;2022-12-05T09:21:39;11.52;;;7.28;;
54977;SDS011;40873;47.522;19.106;2022-12-05T09:24:08;14.73;;;7.60;;
54977;SDS011;40873;47.522;19.106;2022-12-05T09:26:37;10.73;;;7.30;;
54977;SDS011;40873;47.522;19.106;2022-12-05T09:29:04;14.38;;;7.95;;
54977;SDS011;40873;47.522;19.106;2022-12-05T09:31:30;18.50;;;8.07;;
54977;SDS011;40873;47.522;19.106;2022-12-05T09:33:59;14.00;;;7.25;;
54977;SDS011;40873;47.522;19.106;2022-12-05T09:36:27;18.30;;;8.38;;
54977;SDS011;40873;47.522;19.106;2022-12-05T09:39:01;14.00;;;7.57;;
54977;SDS011;40873;47.522;19.106;2022-12-05T09:41:38;13.70;;;7.38;;
54977;SDS011;40873;47.522;19.106;2022-12-05T09:52:52;12.35;;;7.43;;
54977;SDS011;40873;47.522;19.106;2022-12-05T09:55:21;12.85;;;7.55;;
54977;SDS011;40873;47.522;19.106;2022-12-05T09:57:53;13.02;;;8.40;;
54977;SDS011;40873;47.522;19.106;2022-12-05T10:00:23;14.45;;;7.90;;
54977;SDS011;40873;47.522;19.106;2022-12-05T10:03:11;12.20;;;7.13;;
54977;SDS011;40873;47.522;19.106;2022-12-05T10:05:57;15.85;;;8.18;;
54977;SDS011;40873;47.522;19.106;2022-12-05T10:08:53;16.23;;;8.60;;
54977;SDS011;40873;47.522;19.106;2022-12-05T10:14:32;15.45;;;8.25;;
54977;SDS011;40873;47.522;19.106;2022-12-05T10:17:08;13.93;;;7.85;;
54977;SDS011;40873;47.522;19.106;2022-12-05T10:19:46;14.82;;;8.80;;
54977;SDS011;40873;47.522;19.106;2022-12-05T10:22:17;14.40;;;7.72;;
54977;SDS011;40873;47.522;19.106;2022-12-05T10:25:10;15.73;;;8.43;;
54977;SDS011;40873;47.522;19.106;2022-12-05T10:28:02;16.10;;;9.23;;
54977;SDS011;40873;47.522;19.106;2022-12-05T10:30:32;15.73;;;8.52;;
54977;SDS011;40873;47.522;19.106;2022-12-05T10:33:03;13.32;;;8.15;;
54977;SDS011;40873;47.522;19.106;2022-12-05T10:35:40;14.65;;;9.05;;
54977;SDS011;40873;47.522;19.106;2022-12-05T10:41:11;11.50;;;7.70;;
54977;SDS011;40873;47.522;19.106;2022-12-05T10:43:41;13.57;;;9.13;;
54977;SDS011;40873;47.522;19.106;2022-12-05T10:46:10;13.32;;;8.48;;
54977;SDS011;40873;47.522;19.106;2022-12-05T10:48:43;16.50;;;9.40;;
54977;SDS011;40873;47.522;19.106;2022-12-05T10:51:16;12.93;;;8.45;;
54977;SDS011;40873;47.522;19.106;2022-12-05T10:53:49;15.93;;;9.13;;
54977;SDS011;40873;47.522;19.106;2022-12-05T10:59:04;16.73;;;10.88;;
54977;SDS011;40873;47.522;19.106;2022-12-05T11:01:35;14.88;;;8.98;;
54977;SDS011;40873;47.522;19.106;2022-12-05T11:04:09;15.57;;;9.85;;
54977;SDS011;40873;47.522;19.106;2022-12-05T11:06:57;13.57;;;9.18;;
54977;SDS011;40873;47.522;19.106;2022-12-05T11:09:34;13.90;;;9.63;;
54977;SDS011;40873;47.522;19.106;2022-12-05T11:12:04;15.60;;;9.73;;
54977;SDS011;40873;47.522;19.106;2022-12-05T11:14:41;18.98;;;9.25;;
54977;SDS011;40873;47.522;19.106;2022-12-05T11:17:34;14.43;;;9.25;;
54977;SDS011;40873;47.522;19.106;2022-12-05T11:22:47;17.58;;;9.77;;
54977;SDS011;40873;47.522;19.106;2022-12-05T11:27:56;16.15;;;8.85;;
54977;SDS011;40873;47.522;19.106;2022-12-05T11:30:27;14.90;;;9.43;;
54977;SDS011;40873;47.522;19.106;2022-12-05T11:36:11;16.90;;;8.82;;
54977;SDS011;40873;47.522;19.106;2022-12-05T11:38:44;18.05;;;9.00;;
54977;SDS011;40873;47.522;19.106;2022-12-05T12:08:57;21.25;;;10.60;;
54977;SDS011;40873;47.522;19.106;2022-12-05T12:11:48;20.40;;;12.52;;
54977;SDS011;40873;47.522;19.106;2022-12-05T12:18:19;23.15;;;12.05;;
54977;SDS011;40873;47.522;19.106;2022-12-05T12:37:56;25.70;;;14.85;;
54977;SDS011;40873;47.522;19.106;2022-12-05T12:40:54;25.70;;;14.30;;
54977;SDS011;40873;47.522;19.106;2022-12-05T12:49:28;26.27;;;13.50;;
54977;SDS011;40873;47.522;19.106;2022-12-05T12:52:29;23.75;;;13.30;;
54977;SDS011;40873;47.522;19.106;2022-12-05T13:00:21;17.83;;;10.47;;
54977;SDS011;40873;47.522;19.106;2022-12-05T13:07:53;20.40;;;12.10;;
54977;SDS011;40873;47.522;19.106;2022-12-05T13:10:28;17.95;;;11.27;;
54977;SDS011;40873;47.522;19.106;2022-12-05T13:13:00;16.77;;;10.60;;
54977;SDS011;40873;47.522;19.106;2022-12-05T13:15:32;16.92;;;10.88;;
54977;SDS011;40873;47.522;19.106;2022-12-05T13:18:02;22.65;;;12.27;;
54977;SDS011;40873;47.522;19.106;2022-12-05T13:20:34;18.15;;;11.85;;
54977;SDS011;40873;47.522;19.106;2022-12-05T13:23:02;17.40;;;11.00;;
54977;SDS011;40873;47.522;19.106;2022-12-05T13:25:34;23.67;;;12.30;;
54977;SDS011;40873;47.522;19.106;2022-12-05T13:28:05;19.08;;;12.18;;
54977;SDS011;40873;47.522;19.106;2022-12-05T13:30:48;19.48;;;11.50;;
54977;SDS011;40873;47.522;19.106;2022-12-05T13:33:45;20.75;;;10.32;;
54977;SDS011;40873;47.522;19.106;2022-12-05T13:36:18;20.80;;;11.80;;
54977;SDS011;40873;47.522;19.106;2022-12-05T13:41:57;23.27;;;11.93;;
54977;SDS011;40873;47.522;19.106;2022-12-05T13:52:53;19.92;;;13.00;;
54977;SDS011;40873;47.522;19.106;2022-12-05T13:55:29;22.95;;;11.45;;
54977;SDS011;40873;47.522;19.106;2022-12-05T14:00:49;28.52;;;12.40;;
54977;SDS011;40873;47.522;19.106;2022-12-05T14:05:48;22.30;;;11.65;;
54977;SDS011;40873;47.522;19.106;2022-12-05T14:15:51;23.48;;;11.70;;
54977;SDS011;40873;47.522;19.106;2022-12-05T14:18:41;21.42;;;12.73;;
54977;SDS011;40873;47.522;19.106;2022-12-05T14:34:55;25.30;;;13.52;;
54977;SDS011;40873;47.522;19.106;2022-12-05T14:37:30;22.58;;;12.00;;
54977;SDS011;40873;47.522;19.106;2022-12-05T14:47:55;22.63;;;11.20;;
54977;SDS011;40873;47.522;19.106;2022-12-05T14:50:43;20.40;;;11.45;;
54977;SDS011;40873;47.522;19.106;2022-12-05T14:58:36;19.60;;;11.35;;
54977;SDS011;40873;47.522;19.106;2022-12-05T15:04:14;21.55;;;11.60;;
54977;SDS011;40873;47.522;19.106;2022-12-05T15:06:48;19.35;;;11.75;;
54977;SDS011;40873;47.522;19.106;2022-12-05T15:09:29;18.30;;;10.75;;
54977;SDS011;40873;47.522;19.106;2022-12-05T15:12:23;20.67;;;11.80;;
54977;SDS011;40873;47.522;19.106;2022-12-05T15:17:44;24.08;;;12.70;;
54977;SDS011;40873;47.522;19.106;2022-12-05T15:31:50;20.42;;;11.57;;
54977;SDS011;40873;47.522;19.106;2022-12-05T15:34:41;18.55;;;11.45;;
54977;SDS011;40873;47.522;19.106;2022-12-05T15:42:35;27.35;;;10.98;;
54977;SDS011;40873;47.522;19.106;2022-12-05T15:47:41;22.77;;;11.35;;
54977;SDS011;40873;47.522;19.106;2022-12-05T15:50:23;18.35;;;11.00;;
54977;SDS011;40873;47.522;19.106;2022-12-05T15:53:38;20.00;;;11.50;;
54977;SDS011;40873;47.522;19.106;2022-12-05T15:56:04;24.83;;;13.18;;
54977;SDS011;40873;47.522;19.106;2022-12-05T15:58:48;20.33;;;11.80;;
54977;SDS011;40873;47.522;19.106;2022-12-05T16:01:21;21.10;;;11.40;;
54977;SDS011;40873;47.522;19.106;2022-12-05T16:04:03;22.25;;;11.85;;
54977;SDS011;40873;47.522;19.106;2022-12-05T16:06:47;21.40;;;11.90;;
54977;SDS011;40873;47.522;19.106;2022-12-05T16:09:17;26.60;;;11.98;;
54977;SDS011;40873;47.522;19.106;2022-12-05T16:11:53;22.92;;;12.55;;
54977;SDS011;40873;47.522;19.106;2022-12-05T16:14:33;20.38;;;11.10;;
54977;SDS011;40873;47.522;19.106;2022-12-05T16:17:25;21.63;;;11.98;;
54977;SDS011;40873;47.522;19.106;2022-12-05T16:20:09;20.58;;;11.35;;
54977;SDS011;40873;47.522;19.106;2022-12-05T16:22:44;23.20;;;12.15;;
54977;SDS011;40873;47.522;19.106;2022-12-05T16:25:25;17.13;;;10.13;;
54977;SDS011;40873;47.522;19.106;2022-12-05T16:30:33;21.63;;;11.65;;
54977;SDS011;40873;47.522;19.106;2022-12-05T16:33:03;17.70;;;10.13;;
54977;SDS011;40873;47.522;19.106;2022-12-05T16:38:06;22.67;;;11.10;;
54977;SDS011;40873;47.522;19.106;2022-12-05T16:45:48;19.73;;;10.95;;
54977;SDS011;40873;47.522;19.106;2022-12-05T16:48:20;20.60;;;11.90;;
54977;SDS011;40873;47.522;19.106;2022-12-05T16:50:47;16.35;;;10.43;;
54977;SDS011;40873;47.522;19.106;2022-12-05T16:53:18;17.90;;;9.35;;
54977;SDS011;40873;47.522;19.106;2022-12-05T16:55:47;20.52;;;10.68;;
54977;SDS011;40873;47.522;19.106;2022-12-05T16:58:19;19.33;;;10.05;;
54977;SDS011;40873;47.522;19.106;2022-12-05T17:00:49;22.53;;;10.43;;
54977;SDS011;40873;47.522;19.106;2022-12-05T17:03:17;17.60;;;10.82;;
54977;SDS011;40873;47.522;19.106;2022-12-05T17:06:00;17.45;;;9.25;;
54977;SDS011;40873;47.522;19.106;2022-12-05T17:08:27;18.40;;;9.55;;
54977;SDS011;40873;47.522;19.106;2022-12-05T17:10:54;19.45;;;11.30;;
54977;SDS011;40873;47.522;19.106;2022-12-05T17:13:22;19.30;;;10.00;;
54977;SDS011;40873;47.522;19.106;2022-12-05T17:15:49;18.33;;;10.45;;
54977;SDS011;40873;47.522;19.106;2022-12-05T17:18:18;20.27;;;10.73;;
54977;SDS011;40873;47.522;19.106;2022-12-05T17:20:53;19.52;;;11.00;;
54977;SDS011;40873;47.522;19.106;2022-12-05T17:23:21;18.90;;;11.10;;
54977;SDS011;40873;47.522;19.106;2022-12-05T17:25:52;16.27;;;9.50;;
54977;SDS011;40873;47.522;19.106;2022-12-05T17:28:22;17.60;;;9.55;;
54977;SDS011;40873;47.522;19.106;2022-12-05T17:30:50;17.80;;;10.30;;
54977;SDS011;40873;47.522;19.106;2022-12-05T17:33:18;19.40;;;10.60;;
54977;SDS011;40873;47.522;19.106;2022-12-05T17:35:45;20.83;;;10.15;;
54977;SDS011;40873;47.522;19.106;2022-12-05T17:38:13;17.42;;;9.98;;
54977;SDS011;40873;47.522;19.106;2022-12-05T17:40:40;19.15;;;9.45;;
54977;SDS011;40873;47.522;19.106;2022-12-05T17:43:09;22.67;;;10.07;;
54977;SDS011;40873;47.522;19.106;2022-12-05T17:45:40;21.02;;;9.82;;
54977;SDS011;40873;47.522;19.106;2022-12-05T17:48:11;15.32;;;8.57;;
54977;SDS011;40873;47.522;19.106;2022-12-05T17:50:40;20.35;;;9.68;;
54977;SDS011;40873;47.522;19.106;2022-12-05T17:53:12;17.42;;;8.77;;
54977;SDS011;40873;47.522;19.106;2022-12-05T17:55:44;14.65;;;8.02;;
54977;SDS011;40873;47.522;19.106;2022-12-05T17:58:14;19.80;;;9.02;;
54977;SDS011;40873;47.522;19.106;2022-12-05T18:00:42;13.73;;;8.18;;
54977;SDS011;40873;47.522;19.106;2022-12-05T18:03:12;18.13;;;9.35;;
54977;SDS011;40873;47.522;19.106;2022-12-05T18:05:40;16.13;;;7.97;;
54977;SDS011;40873;47.522;19.106;2022-12-05T18:08:10;14.52;;;8.15;;
54977;SDS011;40873;47.522;19.106;2022-12-05T18:10:43;16.33;;;8.75;;
54977;SDS011;40873;47.522;19.106;2022-12-05T18:13:13;17.80;;;8.20;;
54977;SDS011;40873;47.522;19.106;2022-12-05T18:15:41;17.83;;;8.98;;
54977;SDS011;40873;47.522;19.106;2022-12-05T18:18:11;17.60;;;9.07;;
54977;SDS011;40873;47.522;19.106;2022-12-05T18:20:40;19.63;;;9.10;;
54977;SDS011;40873;47.522;19.106;2022-12-05T18:23:08;17.52;;;7.68;;
54977;SDS011;40873;47.522;19.106;2022-12-05T18:25:40;20.42;;;8.90;;
54977;SDS011;40873;47.522;19.106;2022-12-05T18:28:08;13.82;;;7.68;;
54977;SDS011;40873;47.522;19.106;2022-12-05T18:30:38;16.50;;;8.43;;
54977;SDS011;40873;47.522;19.106;2022-12-05T18:33:07;14.40;;;8.00;;
54977;SDS011;40873;47.522;19.106;2022-12-05T18:35:38;15.60;;;8.18;;
54977;SDS011;40873;47.522;19.106;2022-12-05T18:38:10;15.85;;;7.53;;